Time;durP1;ratioP1;P1;durP2;ratioP2;P2;SDS_P1;SDS_P2;PMS_P1;PMS_P2;Temp;Humidity;BMP_temperature;BMP_pressure;BME280_temperature;BME280_humidity;BME280_pressure;Samples;Min_cycle;Max_cycle;Signal;HPM_P1;HPM_P2
2021/05/21 00:02:23;;;;;;;1.87;1.20;;;13.60;99.90;;;;;;5011554;28;20258;-80
2021/05/21 00:04:49;;;;;;;2.10;1.90;;;13.50;99.90;;;;;;4993452;28;20212;-80
2021/05/21 00:07:15;;;;;;;2.57;1.43;;;13.50;99.90;;;;;;5018695;28;20180;-80
2021/05/21 00:09:40;;;;;;;1.40;1.30;;;13.50;99.90;;;;;;5004763;28;20184;-81
2021/05/21 00:12:06;;;;;;;2.80;1.47;;;13.50;99.90;;;;;;4995530;28;20282;-80
2021/05/21 00:14:32;;;;;;;2.60;1.60;;;13.50;99.90;;;;;;5009019;28;20208;-81
2021/05/21 00:16:58;;;;;;;2.10;1.33;;;13.50;99.90;;;;;;4992181;28;20427;-81
2021/05/21 00:19:23;;;;;;;2.10;1.90;;;13.50;99.90;;;;;;5011071;28;20215;-77
2021/05/21 00:21:49;;;;;;;1.40;1.30;;;13.50;99.90;;;;;;4993761;28;20307;-82
2021/05/21 00:24:15;;;;;;;1.50;1.40;;;13.50;99.90;;;;;;4993817;28;20694;-79
2021/05/21 00:26:41;;;;;;;1.70;1.57;;;13.50;99.90;;;;;;4993449;28;20706;-79
2021/05/21 00:29:07;;;;;;;1.80;1.67;;;13.50;99.90;;;;;;4992708;28;20184;-81
2021/05/21 00:31:33;;;;;;;1.47;1.37;;;13.60;99.90;;;;;;5014487;28;20788;-80
2021/05/21 00:33:59;;;;;;;1.70;1.60;;;13.60;99.90;;;;;;4998963;28;20184;-79
2021/05/21 00:36:25;;;;;;;1.90;1.30;;;13.60;99.90;;;;;;5009601;28;20478;-81
2021/05/21 00:38:50;;;;;;;1.90;1.47;;;13.50;99.90;;;;;;4992383;28;20481;-79
2021/05/21 00:41:19;;;;;;;1.40;1.30;;;13.60;99.90;;;;;;5010413;28;20212;-82
2021/05/21 00:43:45;;;;;;;2.70;1.87;;;13.50;99.90;;;;;;4994019;28;20214;-79
2021/05/21 00:46:10;;;;;;;1.80;1.70;;;13.60;99.90;;;;;;5002226;28;20950;-80
2021/05/21 00:48:36;;;;;;;1.97;1.87;;;13.50;99.90;;;;;;4999302;28;20191;-81
2021/05/21 00:51:02;;;;;;;1.80;1.70;;;13.50;99.90;;;;;;4994614;28;20183;-79
2021/05/21 00:53:30;;;;;;;1.63;1.50;;;13.50;99.90;;;;;;4994613;28;20183;-79
2021/05/21 00:55:59;;;;;;;2.50;1.50;;;13.50;99.90;;;;;;4994280;28;20210;-79
2021/05/21 00:58:25;;;;;;;2.53;1.67;;;13.50;99.90;;;;;;4996161;28;20431;-80
2021/05/21 01:00:55;;;;;;;1.63;1.53;;;13.50;99.90;;;;;;5012605;28;20469;-79
2021/05/21 01:03:21;;;;;;;2.30;1.50;;;13.40;99.90;;;;;;5001203;28;20419;-79
2021/05/21 01:05:47;;;;;;;1.77;1.40;;;13.50;99.90;;;;;;4991005;28;20466;-78
2021/05/21 01:08:15;;;;;;;3.00;1.70;;;13.50;99.90;;;;;;5000817;28;20468;-81
2021/05/21 01:10:41;;;;;;;2.60;1.60;;;13.40;99.90;;;;;;4992162;28;20234;-81
2021/05/21 01:13:06;;;;;;;2.03;1.93;;;13.50;99.90;;;;;;4991313;28;20442;-81
2021/05/21 01:15:37;;;;;;;2.73;1.43;;;13.40;99.90;;;;;;5010041;28;20828;-79
2021/05/21 01:18:04;;;;;;;1.73;1.53;;;13.50;99.90;;;;;;4992555;28;20187;-82
2021/05/21 01:20:30;;;;;;;1.57;1.47;;;13.40;99.90;;;;;;4992182;28;20569;-80
2021/05/21 01:22:56;;;;;;;2.13;1.40;;;13.40;99.90;;;;;;5009586;28;20419;-83
2021/05/21 01:25:22;;;;;;;2.17;1.33;;;13.40;99.90;;;;;;4998282;28;20454;-80
2021/05/21 01:27:49;;;;;;;2.77;1.50;;;13.40;99.90;;;;;;4990618;28;20192;-77
2021/05/21 01:30:15;;;;;;;1.50;1.40;;;13.40;99.90;;;;;;4991589;28;20191;-84
2021/05/21 01:32:45;;;;;;;3.70;1.50;;;13.40;99.90;;;;;;5017988;28;20514;-81
2021/05/21 01:35:11;;;;;;;2.87;1.77;;;13.30;99.90;;;;;;5020192;28;20805;-84
2021/05/21 01:37:42;;;;;;;2.50;1.70;;;13.40;99.90;;;;;;4993623;28;20426;-80
2021/05/21 01:40:09;;;;;;;1.90;1.70;;;13.30;99.90;;;;;;4991751;28;20203;-79
2021/05/21 01:42:35;;;;;;;1.60;1.50;;;13.40;99.90;;;;;;5009581;28;20490;-80
2021/05/21 01:45:02;;;;;;;1.90;1.80;;;13.30;99.90;;;;;;5010311;28;20438;-81
2021/05/21 01:47:28;;;;;;;1.60;1.50;;;13.40;99.90;;;;;;4992101;28;20188;-84
2021/05/21 01:49:54;;;;;;;1.63;1.53;;;13.30;99.90;;;;;;4998562;28;20517;-82
2021/05/21 01:52:19;;;;;;;1.80;1.70;;;13.30;99.90;;;;;;5013140;28;20435;-79
2021/05/21 01:54:45;;;;;;;8.70;1.93;;;13.30;99.90;;;;;;4996105;28;20219;-81
2021/05/21 01:57:11;;;;;;;2.90;1.70;;;13.30;99.90;;;;;;5014191;28;20191;-80
2021/05/21 01:59:37;;;;;;;2.03;1.93;;;13.30;99.90;;;;;;4995513;28;20660;-79
2021/05/21 02:02:03;;;;;;;1.50;1.40;;;13.30;99.90;;;;;;5005983;28;20203;-81
2021/05/21 02:04:36;;;;;;;2.37;1.50;;;13.30;99.90;;;;;;4994967;28;20195;-80
2021/05/21 02:07:03;;;;;;;1.83;1.70;;;13.30;99.90;;;;;;5003192;28;20954;-80
2021/05/21 02:09:34;;;;;;;2.03;1.93;;;13.30;99.90;;;;;;4995138;28;20427;-83
2021/05/21 02:12:04;;;;;;;1.80;1.60;;;13.40;99.90;;;;;;5013695;28;20418;-83
2021/05/21 02:14:30;;;;;;;1.93;1.83;;;13.40;99.90;;;;;;5002746;28;20513;-78
2021/05/21 02:16:56;;;;;;;1.57;1.47;;;13.40;99.90;;;;;;5000341;28;20423;-81
2021/05/21 02:19:21;;;;;;;1.90;1.60;;;13.30;99.90;;;;;;5008106;28;20183;-78
2021/05/21 02:21:47;;;;;;;1.60;1.50;;;13.40;99.90;;;;;;5002108;28;20231;-80
2021/05/21 02:24:13;;;;;;;1.90;1.70;;;13.30;99.90;;;;;;5000373;28;20637;-79
2021/05/21 02:26:38;;;;;;;3.53;1.80;;;13.30;99.90;;;;;;5003328;28;20211;-79
2021/05/21 02:29:04;;;;;;;5.23;1.90;;;13.30;99.90;;;;;;4997343;28;20798;-79
2021/05/21 02:31:29;;;;;;;1.97;1.60;;;13.40;99.90;;;;;;4996892;28;20222;-80
2021/05/21 02:33:55;;;;;;;2.03;1.77;;;13.30;99.90;;;;;;5010987;28;20187;-80
2021/05/21 02:36:21;;;;;;;2.60;1.30;;;13.30;99.90;;;;;;4997210;28;20211;-79
2021/05/21 02:38:46;;;;;;;2.20;1.80;;;13.30;99.90;;;;;;5015035;28;20191;-80
2021/05/21 02:41:12;;;;;;;1.80;1.70;;;13.30;99.90;;;;;;5014783;28;20287;-80
2021/05/21 02:43:37;;;;;;;1.50;1.40;;;13.30;99.90;;;;;;4996402;28;20580;-78
2021/05/21 02:46:03;;;;;;;2.53;1.80;;;13.40;99.90;;;;;;4996449;28;20282;-79
2021/05/21 02:48:28;;;;;;;1.93;1.63;;;13.40;99.90;;;;;;4997474;28;20205;-82
2021/05/21 02:50:54;;;;;;;1.90;1.80;;;13.40;99.90;;;;;;5001976;28;20195;-79
2021/05/21 02:53:20;;;;;;;2.50;1.60;;;13.40;99.90;;;;;;4995690;28;20175;-78
2021/05/21 02:55:45;;;;;;;2.17;1.37;;;13.40;99.90;;;;;;5003121;28;20294;-80
2021/05/21 02:58:11;;;;;;;2.70;1.40;;;13.50;99.90;;;;;;4996152;28;20212;-81
2021/05/21 03:00:36;;;;;;;1.80;1.70;;;13.50;99.90;;;;;;4996845;28;20214;-79
2021/05/21 03:03:02;;;;;;;1.37;1.27;;;13.50;99.90;;;;;;5013233;28;20188;-79
2021/05/21 03:05:28;;;;;;;1.53;1.40;;;13.50;99.90;;;;;;5000401;28;20690;-80
2021/05/21 03:07:55;;;;;;;1.73;1.60;;;13.50;99.90;;;;;;4996360;28;20255;-79
2021/05/21 03:10:22;;;;;;;2.13;1.90;;;13.50;99.90;;;;;;4999417;28;20180;-79
2021/05/21 03:12:48;;;;;;;3.60;1.30;;;13.50;99.90;;;;;;4996271;28;20438;-78
2021/05/21 03:15:14;;;;;;;1.57;1.47;;;13.40;99.90;;;;;;5015931;28;20431;-79
2021/05/21 03:17:39;;;;;;;1.60;1.50;;;13.40;99.90;;;;;;5025298;28;20640;-80
2021/05/21 03:20:06;;;;;;;2.23;1.67;;;13.40;99.90;;;;;;5017922;28;20188;-81
2021/05/21 03:22:32;;;;;;;1.20;1.10;;;13.40;99.90;;;;;;4996886;28;20356;-79
2021/05/21 03:25:01;;;;;;;1.63;1.30;;;13.40;99.90;;;;;;5014484;28;20442;-80
2021/05/21 03:27:27;;;;;;;1.60;1.50;;;13.40;99.90;;;;;;4998035;28;20423;-78
2021/05/21 03:29:53;;;;;;;1.97;1.37;;;13.40;99.90;;;;;;4997422;28;20449;-79
2021/05/21 03:32:18;;;;;;;2.33;1.47;;;13.40;99.90;;;;;;5019649;28;20207;-79
2021/05/21 03:34:44;;;;;;;1.60;1.50;;;13.40;99.90;;;;;;4997737;28;20298;-80
2021/05/21 03:37:09;;;;;;;2.27;1.80;;;13.40;99.90;;;;;;4997400;28;20541;-82
2021/05/21 03:39:35;;;;;;;2.07;1.87;;;13.40;99.90;;;;;;4997696;28;20279;-79
2021/05/21 03:42:00;;;;;;;2.27;1.37;;;13.40;99.90;;;;;;5000371;28;20641;-81
2021/05/21 03:44:26;;;;;;;1.30;1.20;;;13.30;99.90;;;;;;5018357;28;20180;-80
2021/05/21 03:46:52;;;;;;;2.50;1.57;;;13.30;99.90;;;;;;5019021;28;20188;-82
2021/05/21 03:49:17;;;;;;;1.73;1.40;;;13.30;99.90;;;;;;4996777;28;20568;-78
2021/05/21 03:51:43;;;;;;;1.50;1.40;;;13.40;99.90;;;;;;5017255;28;20184;-79
2021/05/21 03:54:09;;;;;;;1.53;1.30;;;13.40;99.90;;;;;;4997162;28;20194;-81
2021/05/21 03:56:35;;;;;;;2.77;1.47;;;13.30;99.90;;;;;;5003546;28;20442;-81
2021/05/21 03:59:01;;;;;;;1.47;1.37;;;13.30;99.90;;;;;;4997136;28;20192;-81
2021/05/21 04:01:26;;;;;;;1.63;1.30;;;13.30;99.90;;;;;;5016217;28;20202;-80
2021/05/21 04:03:52;;;;;;;2.33;1.40;;;13.30;99.90;;;;;;5016315;28;20199;-80
2021/05/21 04:06:18;;;;;;;2.10;1.93;;;13.30;99.90;;;;;;4995886;28;20331;-82
2021/05/21 04:08:43;;;;;;;1.63;1.53;;;13.30;99.90;;;;;;5002479;28;20204;-79
2021/05/21 04:11:09;;;;;;;1.70;1.60;;;13.20;99.90;;;;;;4996252;28;20184;-82
2021/05/21 04:13:34;;;;;;;2.30;1.60;;;13.30;99.90;;;;;;5007190;28;20227;-82
2021/05/21 04:16:00;;;;;;;1.80;1.60;;;13.20;99.90;;;;;;5008795;28;20203;-82
2021/05/21 04:18:26;;;;;;;2.63;1.30;;;13.20;99.90;;;;;;5020051;28;20724;-76
2021/05/21 04:20:51;;;;;;;2.00;1.60;;;13.30;99.90;;;;;;5027790;28;20211;-81
2021/05/21 04:23:17;;;;;;;2.43;1.20;;;13.30;99.90;;;;;;5001462;28;20189;-82
2021/05/21 04:25:43;;;;;;;1.87;1.40;;;13.30;99.90;;;;;;5019808;28;20204;-80
2021/05/21 04:28:10;;;;;;;1.40;1.23;;;13.30;99.90;;;;;;4993748;28;20180;-82
2021/05/21 04:30:36;;;;;;;1.67;1.27;;;13.40;99.90;;;;;;4993263;28;20188;-81
2021/05/21 04:33:02;;;;;;;2.40;1.60;;;13.50;99.90;;;;;;4994545;28;20417;-80
2021/05/21 04:35:28;;;;;;;3.10;1.70;;;13.40;99.90;;;;;;4996452;28;20225;-82
2021/05/21 04:37:53;;;;;;;1.73;1.37;;;13.50;99.90;;;;;;5004150;28;20847;-82
2021/05/21 04:40:19;;;;;;;1.40;1.30;;;13.40;99.90;;;;;;4993507;28;20183;-80
2021/05/21 04:42:45;;;;;;;3.30;1.30;;;13.40;99.90;;;;;;4996724;28;20206;-83
2021/05/21 04:45:12;;;;;;;1.73;1.37;;;13.50;99.90;;;;;;5000804;28;20984;-80
2021/05/21 04:47:37;;;;;;;1.63;1.13;;;13.50;99.90;;;;;;5003679;28;20184;-83
2021/05/21 04:50:04;;;;;;;1.53;1.43;;;13.50;99.90;;;;;;4992629;28;20510;-79
2021/05/21 04:52:30;;;;;;;2.40;1.40;;;13.50;99.90;;;;;;5010767;28;20183;-80
2021/05/21 04:54:55;;;;;;;1.93;1.30;;;13.60;99.90;;;;;;5010750;28;20458;-81
2021/05/21 04:57:21;;;;;;;1.50;1.40;;;13.60;99.90;;;;;;4992735;28;20213;-80
2021/05/21 04:59:46;;;;;;;1.60;1.47;;;13.60;99.90;;;;;;4995311;28;20286;-79
2021/05/21 05:02:12;;;;;;;2.53;2.00;;;13.60;99.90;;;;;;5018152;28;20202;-78
2021/05/21 05:04:37;;;;;;;1.30;1.20;;;13.60;99.90;;;;;;5014313;28;20234;-80
2021/05/21 05:07:03;;;;;;;2.60;1.80;;;13.70;99.90;;;;;;4995271;28;20180;-81
2021/05/21 05:09:28;;;;;;;1.50;1.40;;;13.70;99.90;;;;;;4992283;28;20180;-82
2021/05/21 05:11:55;;;;;;;3.63;1.73;;;13.70;99.90;;;;;;5010642;28;20558;-82
2021/05/21 05:14:21;;;;;;;2.23;1.77;;;13.70;99.90;;;;;;5011953;28;20172;-82
2021/05/21 05:16:46;;;;;;;1.93;1.40;;;13.70;99.90;;;;;;4992330;28;20461;-78
2021/05/21 05:19:12;;;;;;;1.63;1.53;;;13.70;99.90;;;;;;5002310;28;20171;-82
2021/05/21 05:21:40;;;;;;;1.63;1.53;;;13.70;99.90;;;;;;5010276;28;20220;-79
2021/05/21 05:24:19;;;;;;;3.00;2.03;;;13.80;99.90;;;;;;4990599;28;20181;-82
2021/05/21 05:26:46;;;;;;;1.87;1.30;;;13.80;99.90;;;;;;5013144;28;20414;-83
2021/05/21 05:29:12;;;;;;;3.10;1.70;;;13.80;99.90;;;;;;5023385;28;20442;-81
2021/05/21 05:31:39;;;;;;;1.50;1.40;;;13.80;99.90;;;;;;4996828;28;20943;-84
2021/05/21 05:34:05;;;;;;;2.23;1.80;;;13.90;99.90;;;;;;5009618;28;20727;-81
2021/05/21 05:36:31;;;;;;;2.40;2.20;;;13.90;99.90;;;;;;5009708;28;20438;-80
2021/05/21 05:38:57;;;;;;;3.27;1.70;;;13.90;99.90;;;;;;4994514;28;20935;-78
2021/05/21 05:41:23;;;;;;;1.73;1.63;;;13.90;99.90;;;;;;5012146;28;20458;-78
2021/05/21 05:43:48;;;;;;;2.60;1.70;;;13.90;99.90;;;;;;4994250;28;20429;-79
2021/05/21 05:46:14;;;;;;;3.20;2.20;;;14.00;99.90;;;;;;4993939;28;20271;-82
2021/05/21 05:48:39;;;;;;;7.17;2.70;;;14.10;99.90;;;;;;4994050;28;20487;-79
2021/05/21 05:51:05;;;;;;;1.77;1.57;;;14.10;99.90;;;;;;4997363;28;20238;-83
2021/05/21 05:53:36;;;;;;;1.73;1.53;;;14.10;99.90;;;;;;5003095;28;20245;-79
2021/05/21 05:56:03;;;;;;;3.57;1.60;;;14.20;99.90;;;;;;4996157;28;20227;-79
2021/05/21 05:58:29;;;;;;;1.50;1.40;;;14.30;99.90;;;;;;5012284;28;20451;-80
2021/05/21 06:00:54;;;;;;;2.87;1.73;;;14.30;99.90;;;;;;5012281;28;20563;-78
2021/05/21 06:03:20;;;;;;;3.43;1.60;;;14.30;99.90;;;;;;4994493;28;20191;-79
2021/05/21 06:05:46;;;;;;;4.70;1.90;;;14.30;99.90;;;;;;5017102;28;20218;-79
2021/05/21 06:08:11;;;;;;;2.90;1.80;;;14.40;99.90;;;;;;5001324;28;20418;-78
2021/05/21 06:10:38;;;;;;;1.53;1.30;;;14.40;99.90;;;;;;4994962;28;20188;-79
2021/05/21 06:13:05;;;;;;;1.80;1.60;;;14.40;99.90;;;;;;4993544;28;20191;-79
2021/05/21 06:15:32;;;;;;;3.30;1.80;;;14.50;99.90;;;;;;4993445;28;20459;-80
2021/05/21 06:17:58;;;;;;;3.53;1.43;;;14.50;99.90;;;;;;4989141;28;20523;-78
2021/05/21 06:20:25;;;;;;;2.97;1.37;;;14.50;99.90;;;;;;4993951;28;20443;-81
2021/05/21 06:22:51;;;;;;;5.40;1.63;;;14.50;99.90;;;;;;5012235;28;20414;-85
2021/05/21 06:25:21;;;;;;;1.80;1.57;;;14.50;99.90;;;;;;4996153;28;20809;-78
2021/05/21 06:27:46;;;;;;;1.40;1.20;;;14.50;99.90;;;;;;4996205;28;20452;-82
2021/05/21 06:30:13;;;;;;;1.70;1.50;;;14.50;99.90;;;;;;4993283;28;20422;-80
2021/05/21 06:32:42;;;;;;;1.77;1.23;;;14.40;99.90;;;;;;4995893;28;20181;-80
2021/05/21 06:35:09;;;;;;;2.00;1.30;;;14.50;99.90;;;;;;4993426;28;20878;-80
2021/05/21 06:37:35;;;;;;;2.00;1.13;;;14.50;99.90;;;;;;4998849;28;20425;-79
2021/05/21 06:40:00;;;;;;;1.80;1.30;;;14.50;99.90;;;;;;5015379;28;20514;-78
2021/05/21 06:42:26;;;;;;;1.40;1.30;;;14.60;99.90;;;;;;5015252;28;20982;-79
2021/05/21 06:44:52;;;;;;;2.77;1.10;;;14.60;99.90;;;;;;5028072;28;20210;-79
2021/05/21 06:47:17;;;;;;;1.63;1.37;;;14.60;99.90;;;;;;5014966;28;20931;-82
2021/05/21 06:49:43;;;;;;;1.70;1.60;;;14.60;99.90;;;;;;5002897;28;20190;-78
2021/05/21 06:52:09;;;;;;;1.60;1.50;;;14.60;99.90;;;;;;5018748;28;20186;-80
2021/05/21 06:54:36;;;;;;;1.73;1.40;;;14.60;99.90;;;;;;4998011;28;20696;-80
2021/05/21 06:57:03;;;;;;;2.80;1.27;;;14.60;99.90;;;;;;5013802;28;20282;-81
2021/05/21 06:59:28;;;;;;;1.83;1.73;;;14.60;99.90;;;;;;4999515;28;20422;-79
2021/05/21 07:01:54;;;;;;;2.53;1.60;;;14.60;99.90;;;;;;4997770;28;21006;-80
2021/05/21 07:04:19;;;;;;;1.70;1.60;;;14.70;99.90;;;;;;4998140;28;20191;-78
2021/05/21 07:06:45;;;;;;;3.73;2.00;;;14.70;99.90;;;;;;4997179;28;20238;-78
2021/05/21 07:09:11;;;;;;;1.70;1.57;;;14.60;99.90;;;;;;4996903;28;20176;-80
2021/05/21 07:11:36;;;;;;;1.80;1.43;;;14.70;99.90;;;;;;4997333;28;21018;-79
2021/05/21 07:14:03;;;;;;;2.33;1.40;;;14.60;99.90;;;;;;5015632;28;20211;-78
2021/05/21 07:16:29;;;;;;;2.20;1.30;;;14.70;99.90;;;;;;4996598;28;20676;-77
2021/05/21 07:18:55;;;;;;;2.43;1.60;;;14.70;99.90;;;;;;5003227;28;20418;-78
2021/05/21 07:21:21;;;;;;;2.17;1.40;;;14.80;99.90;;;;;;4995546;28;20890;-78
2021/05/21 07:23:46;;;;;;;5.60;2.00;;;14.70;99.90;;;;;;5025424;28;20226;-78
2021/05/21 07:26:12;;;;;;;2.30;1.70;;;14.70;99.90;;;;;;5018503;28;20433;-79
2021/05/21 07:28:38;;;;;;;1.60;1.50;;;14.70;99.90;;;;;;5009275;28;20206;-81
2021/05/21 07:31:03;;;;;;;1.77;1.47;;;14.60;99.90;;;;;;5015129;28;20184;-78
2021/05/21 07:33:32;;;;;;;1.30;1.20;;;14.70;99.90;;;;;;5013912;28;20615;-79
2021/05/21 07:36:00;;;;;;;1.93;1.50;;;14.70;99.90;;;;;;4997112;28;20715;-80
2021/05/21 07:38:25;;;;;;;2.77;1.70;;;14.60;99.90;;;;;;4984502;28;20506;-79
2021/05/21 07:40:51;;;;;;;2.90;2.00;;;14.60;99.90;;;;;;4994668;28;20570;-80
2021/05/21 07:43:17;;;;;;;2.60;1.53;;;14.70;99.90;;;;;;4997567;28;20553;-81
2021/05/21 07:45:42;;;;;;;1.43;1.33;;;14.60;99.90;;;;;;4994439;28;20204;-78
2021/05/21 07:48:08;;;;;;;3.30;1.60;;;14.60;99.90;;;;;;5003332;28;20595;-78
2021/05/21 07:50:38;;;;;;;2.47;2.33;;;14.60;99.90;;;;;;4995182;28;20664;-79
2021/05/21 07:53:04;;;;;;;2.27;1.50;;;14.60;99.90;;;;;;4995415;28;20180;-80
2021/05/21 07:55:29;;;;;;;1.90;1.80;;;14.60;99.90;;;;;;4996134;28;20443;-80
2021/05/21 07:57:55;;;;;;;3.13;1.50;;;14.50;99.90;;;;;;5013696;28;20180;-80
2021/05/21 08:00:21;;;;;;;2.00;1.80;;;14.50;99.90;;;;;;4996544;28;20186;-80
2021/05/21 08:02:46;;;;;;;2.07;1.97;;;14.40;99.90;;;;;;5012546;28;20608;-79
2021/05/21 08:05:12;;;;;;;2.00;1.73;;;14.50;99.90;;;;;;5004498;28;20466;-80
2021/05/21 08:07:38;;;;;;;2.80;1.70;;;14.50;99.90;;;;;;5000605;28;20188;-79
2021/05/21 08:10:06;;;;;;;2.37;1.70;;;14.60;99.90;;;;;;4992922;28;20180;-78
2021/05/21 08:12:32;;;;;;;2.43;1.70;;;14.70;99.90;;;;;;4994221;28;20214;-79
2021/05/21 08:14:57;;;;;;;1.60;1.40;;;14.80;99.90;;;;;;5011875;28;20439;-79
2021/05/21 08:17:23;;;;;;;2.90;1.50;;;14.80;99.90;;;;;;5011761;28;20183;-80
2021/05/21 08:19:50;;;;;;;3.50;1.70;;;14.80;99.90;;;;;;4993667;28;20618;-81
2021/05/21 08:22:16;;;;;;;2.00;1.80;;;14.70;99.90;;;;;;5016100;28;20199;-80
2021/05/21 08:24:41;;;;;;;3.43;1.80;;;14.70;99.90;;;;;;4993238;28;20451;-79
2021/05/21 08:27:08;;;;;;;2.10;1.63;;;14.70;99.90;;;;;;4994615;28;20913;-80
2021/05/21 08:29:33;;;;;;;5.03;1.97;;;14.70;99.90;;;;;;4992371;28;20207;-82
2021/05/21 08:32:01;;;;;;;3.03;1.70;;;14.80;99.90;;;;;;5005691;28;20429;-80
2021/05/21 08:34:27;;;;;;;2.63;1.57;;;14.80;99.90;;;;;;5022570;28;20176;-77
2021/05/21 08:36:52;;;;;;;4.53;1.90;;;14.80;99.90;;;;;;4993141;28;20449;-81
2021/05/21 08:39:18;;;;;;;2.77;2.10;;;14.90;99.90;;;;;;4999999;28;20426;-79
2021/05/21 08:41:48;;;;;;;1.97;1.80;;;14.80;99.90;;;;;;4993401;28;20312;-81
2021/05/21 08:44:17;;;;;;;2.30;2.03;;;14.80;99.90;;;;;;4995230;28;20206;-84
2021/05/21 08:46:42;;;;;;;2.07;1.97;;;14.90;99.90;;;;;;4998511;28;20427;-81
2021/05/21 08:49:08;;;;;;;3.53;1.60;;;14.90;99.90;;;;;;4992087;28;20422;-81
2021/05/21 08:51:34;;;;;;;2.30;1.80;;;15.00;99.90;;;;;;5011083;28;20212;-82
2021/05/21 08:54:00;;;;;;;1.60;1.50;;;15.00;99.90;;;;;;4993353;28;20239;-81
2021/05/21 08:56:26;;;;;;;3.70;2.00;;;15.10;99.90;;;;;;5024267;28;20497;-81
2021/05/21 08:58:52;;;;;;;3.43;1.60;;;15.10;99.90;;;;;;5010770;28;20197;-78
2021/05/21 09:01:18;;;;;;;4.03;1.90;;;15.00;99.90;;;;;;5015745;28;20207;-81
2021/05/21 09:03:46;;;;;;;1.93;1.63;;;15.00;99.90;;;;;;5010885;28;20848;-82
2021/05/21 09:06:20;;;;;;;3.57;1.50;;;15.00;99.90;;;;;;4991722;28;20472;-79
2021/05/21 09:08:54;;;;;;;4.70;1.90;;;15.00;99.90;;;;;;4989659;28;20422;-76
2021/05/21 09:11:30;;;;;;;7.07;1.90;;;15.10;99.90;;;;;;4994768;28;20945;-81
2021/05/21 09:14:05;;;;;;;3.67;1.23;;;15.20;99.90;;;;;;5019447;28;20415;-84
2021/05/21 09:16:33;;;;;;;4.80;1.60;;;15.20;99.90;;;;;;4996578;28;20450;-79
2021/05/21 09:19:11;;;;;;;4.80;1.90;;;15.20;99.90;;;;;;5018814;28;20426;-86
2021/05/21 09:22:03;;;;;;;8.43;2.13;;;15.20;99.90;;;;;;5014619;28;20462;-79
2021/05/21 09:24:39;;;;;;;2.73;1.23;;;15.10;99.90;;;;;;5005312;28;20982;-81
2021/05/21 09:27:06;;;;;;;4.37;1.70;;;15.10;99.90;;;;;;5009911;28;20474;-80
2021/05/21 09:29:44;;;;;;;2.33;2.13;;;15.20;99.90;;;;;;5013605;28;20418;-79
2021/05/21 09:32:24;;;;;;;4.00;2.10;;;15.20;99.90;;;;;;5010791;28;20418;-80
2021/05/21 09:34:58;;;;;;;3.00;1.63;;;15.10;99.90;;;;;;5010310;28;20442;-79
2021/05/21 09:37:25;;;;;;;3.20;1.70;;;15.20;99.90;;;;;;5010518;28;20442;-79
2021/05/21 09:40:09;;;;;;;5.63;2.73;;;15.20;99.90;;;;;;5009608;28;20422;-79
2021/05/21 09:42:52;;;;;;;7.10;2.10;;;15.30;99.90;;;;;;5009151;28;20929;-82
2021/05/21 09:45:29;;;;;;;3.27;1.83;;;15.30;99.90;;;;;;5011389;28;20446;-79
2021/05/21 09:48:06;;;;;;;5.33;1.77;;;15.30;99.90;;;;;;5021576;28;20410;-77
2021/05/21 09:50:37;;;;;;;2.83;1.57;;;15.40;99.90;;;;;;5002620;28;20460;-79
2021/05/21 09:53:14;;;;;;;2.30;1.50;;;15.40;99.90;;;;;;4995336;28;20419;-77
2021/05/21 09:55:43;;;;;;;2.37;1.63;;;15.20;99.90;;;;;;5013392;28;20497;-80
2021/05/21 09:58:23;;;;;;;4.07;1.90;;;15.20;99.90;;;;;;5011413;28;20419;-79
2021/05/21 10:01:10;;;;;;;2.90;2.00;;;15.40;99.90;;;;;;5010544;28;20417;-79
2021/05/21 10:03:41;;;;;;;2.43;2.23;;;15.60;99.90;;;;;;5014656;28;20424;-80
2021/05/21 10:06:07;;;;;;;3.60;1.87;;;15.60;99.90;;;;;;5025304;28;20464;-81
2021/05/21 10:08:33;;;;;;;3.90;2.10;;;15.70;99.90;;;;;;5003066;28;20415;-78
2021/05/21 10:11:00;;;;;;;5.60;2.53;;;15.70;99.90;;;;;;5009192;28;20418;-80
2021/05/21 10:13:26;;;;;;;3.67;2.10;;;15.50;99.90;;;;;;4995356;28;20426;-79
2021/05/21 10:15:52;;;;;;;5.90;2.27;;;15.60;99.90;;;;;;5016375;28;20474;-81
2021/05/21 10:18:19;;;;;;;6.00;1.87;;;15.70;99.90;;;;;;5018310;28;20775;-80
2021/05/21 10:20:46;;;;;;;2.77;2.30;;;15.80;99.90;;;;;;4994862;28;20442;-78
2021/05/21 10:23:19;;;;;;;6.30;1.80;;;15.90;99.90;;;;;;5015798;28;20499;-81
2021/05/21 10:25:48;;;;;;;6.30;2.20;;;15.70;99.90;;;;;;4999094;28;20437;-82
2021/05/21 10:28:15;;;;;;;6.00;2.47;;;15.80;99.90;;;;;;5015172;28;20926;-80
2021/05/21 10:30:41;;;;;;;3.50;1.90;;;15.90;99.90;;;;;;4997787;28;20503;-79
2021/05/21 10:33:22;;;;;;;9.70;2.00;;;15.90;99.90;;;;;;4993350;28;20501;-81
2021/05/21 10:35:49;;;;;;;8.33;2.17;;;15.90;99.90;;;;;;5012890;28;20531;-80
2021/05/21 10:38:17;;;;;;;2.60;1.90;;;16.00;99.90;;;;;;5013269;28;20411;-82
2021/05/21 10:40:43;;;;;;;5.03;2.57;;;16.00;99.90;;;;;;4994479;28;20537;-79
2021/05/21 10:43:17;;;;;;;4.13;1.80;;;16.10;99.90;;;;;;5021071;28;20443;-84
2021/05/21 10:45:56;;;;;;;4.57;2.27;;;16.20;99.90;;;;;;4992331;28;20212;-80
2021/05/21 10:48:27;;;;;;;3.10;1.57;;;16.40;99.90;;;;;;4990077;28;20420;-86
2021/05/21 10:51:14;;;;;;;3.27;1.63;;;16.40;99.90;;;;;;4985205;28;20420;-76
2021/05/21 10:53:41;;;;;;;3.90;2.00;;;16.60;99.90;;;;;;4964486;28;20437;-79
2021/05/21 10:56:06;;;;;;;2.50;1.80;;;16.50;99.90;;;;;;4989668;28;20436;-83
2021/05/21 10:58:34;;;;;;;2.27;1.60;;;16.40;99.90;;;;;;4986140;28;20436;-84
2021/05/21 11:01:20;;;;;;;4.10;2.03;;;16.40;99.90;;;;;;4952728;28;20209;-79
2021/05/21 11:03:55;;;;;;;4.87;2.00;;;16.40;99.90;;;;;;4965181;28;20809;-78
2021/05/21 11:06:22;;;;;;;3.27;2.20;;;16.30;99.90;;;;;;4954322;28;20890;-80
2021/05/21 11:08:48;;;;;;;4.93;1.97;;;16.50;99.90;;;;;;4974430;28;20423;-79
2021/05/21 11:11:15;;;;;;;4.53;2.53;;;16.50;99.90;;;;;;4967658;28;20429;-80
2021/05/21 11:13:41;;;;;;;2.87;1.90;;;16.70;99.90;;;;;;4972211;28;20190;-79
2021/05/21 11:16:12;;;;;;;5.20;2.13;;;16.70;99.90;;;;;;4954377;28;20453;-80
2021/05/21 11:18:47;;;;;;;2.67;1.93;;;16.70;99.90;;;;;;4971067;28;20425;-78
2021/05/21 11:21:17;;;;;;;6.70;2.13;;;16.80;99.90;;;;;;4974706;28;20464;-78
2021/05/21 11:23:46;;;;;;;8.70;1.90;;;16.70;99.90;;;;;;4980880;28;20527;-78
2021/05/21 11:26:16;;;;;;;4.43;2.23;;;16.70;99.90;;;;;;4970524;28;20440;-79
2021/05/21 11:29:01;;;;;;;5.23;2.00;;;16.70;99.90;;;;;;4953312;28;20471;-78
2021/05/21 11:31:29;;;;;;;5.43;2.03;;;16.80;99.90;;;;;;4971028;28;20435;-80
2021/05/21 11:33:59;;;;;;;2.03;1.70;;;17.00;99.90;;;;;;4954038;28;20433;-83
2021/05/21 11:36:25;;;;;;;3.30;1.90;;;16.90;99.90;;;;;;4995301;28;20442;-78
2021/05/21 11:38:52;;;;;;;2.13;1.60;;;16.80;99.90;;;;;;5014281;28;20423;-80
2021/05/21 11:41:21;;;;;;;6.53;1.93;;;16.80;99.90;;;;;;4994996;28;20517;-79
2021/05/21 11:43:47;;;;;;;3.67;1.77;;;16.80;99.90;;;;;;5017164;28;20418;-80
2021/05/21 11:46:15;;;;;;;3.20;1.90;;;16.80;99.90;;;;;;5012641;28;20508;-80
2021/05/21 11:48:42;;;;;;;7.30;1.87;;;16.90;99.90;;;;;;5011398;28;20431;-80
2021/05/21 11:51:14;;;;;;;5.70;1.63;;;16.80;99.90;;;;;;4993977;28;20935;-84
2021/05/21 11:53:47;;;;;;;5.83;2.23;;;16.90;99.90;;;;;;5011760;28;20811;-79
2021/05/21 11:56:14;;;;;;;3.23;1.87;;;17.00;99.90;;;;;;5011621;28;20447;-78
2021/05/21 11:58:39;;;;;;;2.50;1.67;;;17.00;99.90;;;;;;4998087;28;20418;-80
2021/05/21 12:01:05;;;;;;;2.63;1.73;;;16.90;99.90;;;;;;4998278;28;20474;-81
2021/05/21 12:03:38;;;;;;;3.40;1.50;;;16.70;99.90;;;;;;5010778;28;20186;-79
2021/05/21 12:06:05;;;;;;;5.53;2.00;;;16.80;99.90;;;;;;5012280;28;20518;-79
2021/05/21 12:08:32;;;;;;;5.23;1.90;;;17.00;99.90;;;;;;4996385;28;20449;-78
2021/05/21 12:10:59;;;;;;;2.40;1.20;;;17.10;99.90;;;;;;5012461;28;20446;-87
2021/05/21 12:13:31;;;;;;;4.70;2.00;;;17.10;99.90;;;;;;5030613;28;20417;-79
2021/05/21 12:16:14;;;;;;;3.47;1.53;;;17.20;99.90;;;;;;4998274;28;20450;-80
2021/05/21 12:18:40;;;;;;;5.40;1.90;;;17.40;99.90;;;;;;5013426;28;20422;-80
2021/05/21 12:21:07;;;;;;;4.83;2.20;;;17.60;99.90;;;;;;5016613;28;20470;-78
2021/05/21 12:23:46;;;;;;;5.53;2.17;;;17.80;99.90;;;;;;5019039;28;20490;-80
2021/05/21 12:26:12;;;;;;;3.63;1.93;;;17.70;99.90;;;;;;5032926;28;20457;-82
2021/05/21 12:28:38;;;;;;;9.03;2.03;;;17.40;99.90;;;;;;4995207;28;20423;-79
2021/05/21 12:31:05;;;;;;;2.47;1.40;;;17.50;99.90;;;;;;5004056;28;20433;-79
2021/05/21 12:33:36;;;;;;;2.57;2.00;;;17.50;99.80;;;;;;5025541;28;20438;-87
2021/05/21 12:36:06;;;;;;;10.30;2.13;;;17.50;99.90;;;;;;5031966;28;20447;-86
2021/05/21 12:38:32;;;;;;;4.00;2.40;;;17.50;99.90;;;;;;4999405;28;20426;-78
2021/05/21 12:40:59;;;;;;;3.83;1.40;;;17.40;99.90;;;;;;5013367;28;20474;-84
2021/05/21 12:43:28;;;;;;;9.07;2.43;;;17.40;99.90;;;;;;5015400;28;20423;-79
2021/05/21 12:46:07;;;;;;;2.57;1.93;;;17.30;99.70;;;;;;5015767;28;20558;-86
2021/05/21 12:48:44;;;;;;;3.80;1.70;;;17.30;99.90;;;;;;5001363;28;20493;-81
2021/05/21 12:51:45;;;;;;;6.77;1.63;;;17.40;99.90;;;;;;5013874;28;20415;-80